Offutt Air Force Base
KOFF : now visible

Airfield :











YOU CAN JOIN US ON...

 
LOGIN :

Register | Disclaimer

   EN    FR    IT 

 









Legend :    VFR   Marginal VFR   IFR   Intensive IFR   Very Intensive IFR
Visi :
Ceiling :
>= 8 km
>= 3000ft
5 to 8 km
1000 to 3000 ft
1500m to 5 km
500 to 1000 ft
800 to 1500m
200 to 500 ft
< 800m
< 200 ft
Symbols :   Thunderstorms  Fog  Heavy snow  Heavy precipitations  Wind > 20 kt







- Airport Elevation : 1052 ft


KOFF - Offutt Air Force Base

CURRENT METAR :
  • 201956Z 15014G20KT 10SM FEW150 30/20 A2995 RMK AO2A SLP123 RVRNO $

EXPIRED METARs :
  • 201856Z 15012G18KT 10SM BKN250 29/20 A2998 RMK AO2A SLPNO RVRNO $
  • 201756Z 16012G18KT 10SM BKN250 29/20 A3001 RMK AO2A SLP142 RVRNO $

TAF TAF KOFF
Valid from the 20 at 18:00 until the 22 at 00:00 UTC


201800Z 2018/2124 16012G18KT 9999 BKN250 QNH3002INS
BECMG 2102/2103 16012KT 9999 BKN030 BKN070 BKN250 QNH2990INS
BECMG 2113/2114 16015G25KT 9999 BKN025 OVC070 QNH2987INS
BECMG 2122/2123 16025G40KT 1600 TSRAGR OVC030CB QNH2987INS TX30/2020Z TN22/2112Z
No reported NOTAMs for that airfield.



MET'MAP, your aeronautical weather chart ! - Copyright ORBIFLY December 2007 - Disclaimer

ORBIFLY MET'MAP TEAM :

Programming & Development : Alexandra Zaïnal
Concept & Development : Baudouin d'Aumeries
Co-Development & Prog : Marc-Olivier Méhu
Technical & hardware support : Manuel Goepfert

Contact : metmap@orbifly.com




SOURCES & CREDITS :

   NOAA       Earth
Advisory